sensor_id;sensor_type;location;lat;lon;timestamp;temperature;humidity
21944;DHT22;11136;48.778;9.126;2022-08-18T00:01:49;22.00;91.00
21944;DHT22;11136;48.778;9.126;2022-08-18T00:04:15;22.00;91.00
21944;DHT22;11136;48.778;9.126;2022-08-18T00:06:41;21.90;91.10
21944;DHT22;11136;48.778;9.126;2022-08-18T00:09:09;21.90;91.20
21944;DHT22;11136;48.778;9.126;2022-08-18T00:11:40;22.00;91.40
21944;DHT22;11136;48.778;9.126;2022-08-18T00:14:08;21.80;91.50
21944;DHT22;11136;48.778;9.126;2022-08-18T00:16:35;21.80;91.60
21944;DHT22;11136;48.778;9.126;2022-08-18T00:19:01;21.70;91.60
21944;DHT22;11136;48.778;9.126;2022-08-18T00:21:27;21.70;91.70
21944;DHT22;11136;48.778;9.126;2022-08-18T00:23:53;21.70;91.80
21944;DHT22;11136;48.778;9.126;2022-08-18T00:26:18;21.60;91.90
21944;DHT22;11136;48.778;9.126;2022-08-18T00:28:44;21.60;91.90
21944;DHT22;11136;48.778;9.126;2022-08-18T00:31:09;21.60;91.90
21944;DHT22;11136;48.778;9.126;2022-08-18T00:33:35;21.50;91.90
21944;DHT22;11136;48.778;9.126;2022-08-18T00:36:00;21.50;91.90
21944;DHT22;11136;48.778;9.126;2022-08-18T00:38:26;21.50;92.00
21944;DHT22;11136;48.778;9.126;2022-08-18T00:40:53;21.50;92.00
21944;DHT22;11136;48.778;9.126;2022-08-18T00:43:31;21.60;92.00
21944;DHT22;11136;48.778;9.126;2022-08-18T00:45:57;21.50;92.00
21944;DHT22;11136;48.778;9.126;2022-08-18T00:48:23;21.50;92.00
21944;DHT22;11136;48.778;9.126;2022-08-18T00:50:55;21.50;92.00
21944;DHT22;11136;48.778;9.126;2022-08-18T00:53:43;21.50;92.10
21944;DHT22;11136;48.778;9.126;2022-08-18T00:56:14;21.50;92.10
21944;DHT22;11136;48.778;9.126;2022-08-18T00:58:43;21.50;92.00
21944;DHT22;11136;48.778;9.126;2022-08-18T01:01:12;21.60;92.10
21944;DHT22;11136;48.778;9.126;2022-08-18T01:03:38;21.60;92.30
21944;DHT22;11136;48.778;9.126;2022-08-18T01:06:11;21.60;92.40
21944;DHT22;11136;48.778;9.126;2022-08-18T01:08:39;21.70;92.50
21944;DHT22;11136;48.778;9.126;2022-08-18T01:11:06;21.70;92.50
21944;DHT22;11136;48.778;9.126;2022-08-18T01:13:32;21.70;92.40
21944;DHT22;11136;48.778;9.126;2022-08-18T01:15:58;21.70;92.30
21944;DHT22;11136;48.778;9.126;2022-08-18T01:18:24;21.80;92.40
21944;DHT22;11136;48.778;9.126;2022-08-18T01:23:56;21.80;92.40
21944;DHT22;11136;48.778;9.126;2022-08-18T01:26:23;21.80;92.40
21944;DHT22;11136;48.778;9.126;2022-08-18T01:28:50;21.80;92.50
21944;DHT22;11136;48.778;9.126;2022-08-18T01:31:38;21.80;92.50
21944;DHT22;11136;48.778;9.126;2022-08-18T01:34:06;21.80;92.40
21944;DHT22;11136;48.778;9.126;2022-08-18T01:36:35;21.70;92.40
21944;DHT22;11136;48.778;9.126;2022-08-18T01:39:05;21.70;92.30
21944;DHT22;11136;48.778;9.126;2022-08-18T01:41:31;21.70;92.20
21944;DHT22;11136;48.778;9.126;2022-08-18T01:43:58;21.60;92.10
21944;DHT22;11136;48.778;9.126;2022-08-18T01:46:25;21.60;92.10
21944;DHT22;11136;48.778;9.126;2022-08-18T01:48:51;21.60;92.20
21944;DHT22;11136;48.778;9.126;2022-08-18T01:51:17;21.60;92.30
21944;DHT22;11136;48.778;9.126;2022-08-18T01:53:46;21.60;92.50
21944;DHT22;11136;48.778;9.126;2022-08-18T01:56:13;21.50;92.70
21944;DHT22;11136;48.778;9.126;2022-08-18T01:58:42;21.50;92.80
21944;DHT22;11136;48.778;9.126;2022-08-18T02:01:07;21.50;92.90
21944;DHT22;11136;48.778;9.126;2022-08-18T02:03:39;21.50;93.00
21944;DHT22;11136;48.778;9.126;2022-08-18T02:06:09;21.50;93.10
21944;DHT22;11136;48.778;9.126;2022-08-18T02:08:36;21.50;93.20
21944;DHT22;11136;48.778;9.126;2022-08-18T02:11:02;21.50;93.20
21944;DHT22;11136;48.778;9.126;2022-08-18T02:13:28;21.50;93.20
21944;DHT22;11136;48.778;9.126;2022-08-18T02:15:54;21.50;93.30
21944;DHT22;11136;48.778;9.126;2022-08-18T02:18:26;21.50;93.30
21944;DHT22;11136;48.778;9.126;2022-08-18T02:20:53;21.50;93.30
21944;DHT22;11136;48.778;9.126;2022-08-18T02:23:19;21.50;93.30
21944;DHT22;11136;48.778;9.126;2022-08-18T02:25:45;21.50;93.20
21944;DHT22;11136;48.778;9.126;2022-08-18T02:28:11;21.50;93.30
21944;DHT22;11136;48.778;9.126;2022-08-18T02:30:37;21.50;93.30
21944;DHT22;11136;48.778;9.126;2022-08-18T02:33:05;21.50;93.20
21944;DHT22;11136;48.778;9.126;2022-08-18T02:35:31;21.40;93.10
21944;DHT22;11136;48.778;9.126;2022-08-18T02:37:59;21.40;93.10
21944;DHT22;11136;48.778;9.126;2022-08-18T02:40:25;21.40;93.10
21944;DHT22;11136;48.778;9.126;2022-08-18T02:42:50;21.30;93.10
21944;DHT22;11136;48.778;9.126;2022-08-18T02:45:17;21.30;93.20
21944;DHT22;11136;48.778;9.126;2022-08-18T02:47:43;21.40;93.30
21944;DHT22;11136;48.778;9.126;2022-08-18T02:50:10;21.30;93.40
21944;DHT22;11136;48.778;9.126;2022-08-18T02:52:36;21.30;93.40
21944;DHT22;11136;48.778;9.126;2022-08-18T02:55:02;21.30;93.40
21944;DHT22;11136;48.778;9.126;2022-08-18T02:57:29;21.30;93.50
21944;DHT22;11136;48.778;9.126;2022-08-18T02:59:55;21.30;93.50
21944;DHT22;11136;48.778;9.126;2022-08-18T03:02:21;21.30;93.50
21944;DHT22;11136;48.778;9.126;2022-08-18T03:04:47;21.20;93.50
21944;DHT22;11136;48.778;9.126;2022-08-18T03:07:13;21.20;93.50
21944;DHT22;11136;48.778;9.126;2022-08-18T03:09:39;21.20;93.60
21944;DHT22;11136;48.778;9.126;2022-08-18T03:12:06;21.20;93.70
21944;DHT22;11136;48.778;9.126;2022-08-18T03:14:32;21.20;93.70
21944;DHT22;11136;48.778;9.126;2022-08-18T03:16:58;21.10;93.70
21944;DHT22;11136;48.778;9.126;2022-08-18T03:19:28;21.10;93.80
21944;DHT22;11136;48.778;9.126;2022-08-18T03:21:54;21.20;93.90
21944;DHT22;11136;48.778;9.126;2022-08-18T03:24:22;21.20;94.00
21944;DHT22;11136;48.778;9.126;2022-08-18T03:26:47;21.20;93.90
21944;DHT22;11136;48.778;9.126;2022-08-18T03:29:13;21.10;93.80
21944;DHT22;11136;48.778;9.126;2022-08-18T03:31:42;21.10;93.90
21944;DHT22;11136;48.778;9.126;2022-08-18T03:34:08;21.10;93.90
21944;DHT22;11136;48.778;9.126;2022-08-18T03:36:34;21.10;93.90
21944;DHT22;11136;48.778;9.126;2022-08-18T03:39:04;21.10;93.90
21944;DHT22;11136;48.778;9.126;2022-08-18T03:41:30;21.10;94.00
21944;DHT22;11136;48.778;9.126;2022-08-18T03:43:55;21.10;94.00
21944;DHT22;11136;48.778;9.126;2022-08-18T03:46:22;21.10;93.90
21944;DHT22;11136;48.778;9.126;2022-08-18T03:48:48;21.10;93.90
21944;DHT22;11136;48.778;9.126;2022-08-18T03:51:15;21.10;94.00
21944;DHT22;11136;48.778;9.126;2022-08-18T03:53:42;21.10;94.10
21944;DHT22;11136;48.778;9.126;2022-08-18T03:56:10;21.10;94.10
21944;DHT22;11136;48.778;9.126;2022-08-18T03:58:41;21.10;94.10
21944;DHT22;11136;48.778;9.126;2022-08-18T04:01:09;21.10;94.10
21944;DHT22;11136;48.778;9.126;2022-08-18T04:03:35;21.10;94.10
21944;DHT22;11136;48.778;9.126;2022-08-18T04:06:01;21.10;94.40
21944;DHT22;11136;48.778;9.126;2022-08-18T04:08:26;21.10;94.00
21944;DHT22;11136;48.778;9.126;2022-08-18T04:10:52;21.10;94.00
21944;DHT22;11136;48.778;9.126;2022-08-18T04:13:18;21.10;94.00
21944;DHT22;11136;48.778;9.126;2022-08-18T04:15:44;21.00;94.20
21944;DHT22;11136;48.778;9.126;2022-08-18T04:18:09;21.10;94.30
21944;DHT22;11136;48.778;9.126;2022-08-18T04:20:36;21.00;94.30
21944;DHT22;11136;48.778;9.126;2022-08-18T04:23:01;21.00;94.40
21944;DHT22;11136;48.778;9.126;2022-08-18T04:25:27;21.00;94.40
21944;DHT22;11136;48.778;9.126;2022-08-18T04:27:53;21.00;94.50
21944;DHT22;11136;48.778;9.126;2022-08-18T04:30:24;21.00;94.50
21944;DHT22;11136;48.778;9.126;2022-08-18T04:32:50;21.00;94.60
21944;DHT22;11136;48.778;9.126;2022-08-18T04:35:16;21.00;94.60
21944;DHT22;11136;48.778;9.126;2022-08-18T04:37:41;21.00;94.60
21944;DHT22;11136;48.778;9.126;2022-08-18T04:40:09;21.00;94.70
21944;DHT22;11136;48.778;9.126;2022-08-18T04:42:35;21.00;94.70
21944;DHT22;11136;48.778;9.126;2022-08-18T04:45:01;21.00;94.80
21944;DHT22;11136;48.778;9.126;2022-08-18T04:47:27;21.00;94.80
21944;DHT22;11136;48.778;9.126;2022-08-18T04:49:52;21.00;94.90
21944;DHT22;11136;48.778;9.126;2022-08-18T04:52:18;21.00;94.90
21944;DHT22;11136;48.778;9.126;2022-08-18T04:55:04;21.00;94.90
21944;DHT22;11136;48.778;9.126;2022-08-18T04:57:30;21.00;95.10
21944;DHT22;11136;48.778;9.126;2022-08-18T04:59:58;20.90;95.10
21944;DHT22;11136;48.778;9.126;2022-08-18T05:02:23;21.00;95.10
21944;DHT22;11136;48.778;9.126;2022-08-18T05:04:49;21.00;95.20
21944;DHT22;11136;48.778;9.126;2022-08-18T05:07:17;21.00;95.20
21944;DHT22;11136;48.778;9.126;2022-08-18T05:09:43;21.00;95.30
21944;DHT22;11136;48.778;9.126;2022-08-18T05:12:10;21.10;95.30
21944;DHT22;11136;48.778;9.126;2022-08-18T05:14:38;21.10;95.40
21944;DHT22;11136;48.778;9.126;2022-08-18T05:17:04;21.10;95.40
21944;DHT22;11136;48.778;9.126;2022-08-18T05:19:30;21.10;95.70
21944;DHT22;11136;48.778;9.126;2022-08-18T05:21:57;21.20;95.50
21944;DHT22;11136;48.778;9.126;2022-08-18T05:24:23;21.20;95.50
21944;DHT22;11136;48.778;9.126;2022-08-18T05:26:51;21.20;95.40
21944;DHT22;11136;48.778;9.126;2022-08-18T05:29:17;21.20;95.40
21944;DHT22;11136;48.778;9.126;2022-08-18T05:31:43;21.20;95.50
21944;DHT22;11136;48.778;9.126;2022-08-18T05:34:09;21.20;95.50
21944;DHT22;11136;48.778;9.126;2022-08-18T05:42:05;21.30;95.20
21944;DHT22;11136;48.778;9.126;2022-08-18T05:44:36;21.30;95.20
21944;DHT22;11136;48.778;9.126;2022-08-18T05:49:34;21.40;95.30
21944;DHT22;11136;48.778;9.126;2022-08-18T05:52:04;21.40;95.20
21944;DHT22;11136;48.778;9.126;2022-08-18T05:54:41;21.40;95.20
21944;DHT22;11136;48.778;9.126;2022-08-18T05:57:30;21.50;95.30
21944;DHT22;11136;48.778;9.126;2022-08-18T05:59:58;21.50;95.30
21944;DHT22;11136;48.778;9.126;2022-08-18T06:02:56;21.50;95.60
21944;DHT22;11136;48.778;9.126;2022-08-18T06:05:33;21.50;95.20
21944;DHT22;11136;48.778;9.126;2022-08-18T06:10:29;21.60;95.10
21944;DHT22;11136;48.778;9.126;2022-08-18T06:12:57;21.60;95.20
21944;DHT22;11136;48.778;9.126;2022-08-18T06:18:53;21.70;95.00
21944;DHT22;11136;48.778;9.126;2022-08-18T06:27:20;21.90;95.00
21944;DHT22;11136;48.778;9.126;2022-08-18T06:35:30;22.10;94.60
21944;DHT22;11136;48.778;9.126;2022-08-18T06:38:23;22.10;94.50
21944;DHT22;11136;48.778;9.126;2022-08-18T06:41:15;22.10;94.30
21944;DHT22;11136;48.778;9.126;2022-08-18T06:44:15;22.20;94.10
21944;DHT22;11136;48.778;9.126;2022-08-18T06:46:54;22.30;94.10
21944;DHT22;11136;48.778;9.126;2022-08-18T06:49:41;22.30;93.90
21944;DHT22;11136;48.778;9.126;2022-08-18T06:54:52;22.40;93.80
21944;DHT22;11136;48.778;9.126;2022-08-18T06:57:31;22.40;93.70
21944;DHT22;11136;48.778;9.126;2022-08-18T07:00:00;22.40;93.70
21944;DHT22;11136;48.778;9.126;2022-08-18T07:02:59;22.50;93.70
21944;DHT22;11136;48.778;9.126;2022-08-18T07:05:27;22.50;93.70
21944;DHT22;11136;48.778;9.126;2022-08-18T07:08:14;22.50;93.60
21944;DHT22;11136;48.778;9.126;2022-08-18T07:10:46;22.60;93.70
21944;DHT22;11136;48.778;9.126;2022-08-18T07:13:23;22.70;93.30
21944;DHT22;11136;48.778;9.126;2022-08-18T07:15:50;22.70;93.20
21944;DHT22;11136;48.778;9.126;2022-08-18T07:18:25;22.70;93.00
21944;DHT22;11136;48.778;9.126;2022-08-18T07:20:56;22.70;92.90
21944;DHT22;11136;48.778;9.126;2022-08-18T07:23:24;22.70;92.60
21944;DHT22;11136;48.778;9.126;2022-08-18T07:28:50;22.80;92.60
21944;DHT22;11136;48.778;9.126;2022-08-18T07:31:39;22.80;92.60
21944;DHT22;11136;48.778;9.126;2022-08-18T07:34:14;22.80;92.60
21944;DHT22;11136;48.778;9.126;2022-08-18T07:36:48;22.70;92.60
21944;DHT22;11136;48.778;9.126;2022-08-18T07:39:30;22.70;92.50
21944;DHT22;11136;48.778;9.126;2022-08-18T07:42:08;22.70;92.60
21944;DHT22;11136;48.778;9.126;2022-08-18T07:44:52;22.70;92.50
21944;DHT22;11136;48.778;9.126;2022-08-18T07:47:40;22.60;92.50
21944;DHT22;11136;48.778;9.126;2022-08-18T07:50:10;22.60;92.60
21944;DHT22;11136;48.778;9.126;2022-08-18T07:53:09;22.50;92.70
21944;DHT22;11136;48.778;9.126;2022-08-18T07:55:39;22.50;92.80
21944;DHT22;11136;48.778;9.126;2022-08-18T08:01:09;22.60;92.90
21944;DHT22;11136;48.778;9.126;2022-08-18T08:03:41;22.50;92.90
21944;DHT22;11136;48.778;9.126;2022-08-18T08:06:23;22.50;92.90
21944;DHT22;11136;48.778;9.126;2022-08-18T08:09:12;22.50;92.90
21944;DHT22;11136;48.778;9.126;2022-08-18T08:11:58;22.50;92.90
21944;DHT22;11136;48.778;9.126;2022-08-18T08:14:47;22.50;92.90
21944;DHT22;11136;48.778;9.126;2022-08-18T08:20:41;22.50;92.90
21944;DHT22;11136;48.778;9.126;2022-08-18T08:29:10;22.60;93.20
21944;DHT22;11136;48.778;9.126;2022-08-18T08:34:26;22.70;93.10
21944;DHT22;11136;48.778;9.126;2022-08-18T08:37:05;22.80;93.10
21944;DHT22;11136;48.778;9.126;2022-08-18T08:39:41;22.90;93.10
21944;DHT22;11136;48.778;9.126;2022-08-18T08:44:56;23.20;93.00
21944;DHT22;11136;48.778;9.126;2022-08-18T08:50:22;23.50;92.70
21944;DHT22;11136;48.778;9.126;2022-08-18T08:52:51;23.70;92.40
21944;DHT22;11136;48.778;9.126;2022-08-18T08:55:24;23.70;92.30
21944;DHT22;11136;48.778;9.126;2022-08-18T09:00:38;24.00;92.30
21944;DHT22;11136;48.778;9.126;2022-08-18T09:22:46;25.20;91.80
21944;DHT22;11136;48.778;9.126;2022-08-18T09:25:47;25.60;91.30
21944;DHT22;11136;48.778;9.126;2022-08-18T09:28:54;26.00;90.90
21944;DHT22;11136;48.778;9.126;2022-08-18T09:31:24;26.30;90.30
21944;DHT22;11136;48.778;9.126;2022-08-18T09:41:59;26.90;87.20
21944;DHT22;11136;48.778;9.126;2022-08-18T09:49:57;27.30;85.90
21944;DHT22;11136;48.778;9.126;2022-08-18T09:57:43;27.50;84.30
21944;DHT22;11136;48.778;9.126;2022-08-18T10:10:43;27.50;83.60
21944;DHT22;11136;48.778;9.126;2022-08-18T10:15:56;27.80;82.80
21944;DHT22;11136;48.778;9.126;2022-08-18T10:21:14;27.90;81.50
21944;DHT22;11136;48.778;9.126;2022-08-18T10:34:37;27.80;80.80
21944;DHT22;11136;48.778;9.126;2022-08-18T10:37:12;27.80;81.30
21944;DHT22;11136;48.778;9.126;2022-08-18T10:42:17;27.90;80.90
21944;DHT22;11136;48.778;9.126;2022-08-18T10:44:45;27.90;80.30
21944;DHT22;11136;48.778;9.126;2022-08-18T10:47:40;27.90;80.40
21944;DHT22;11136;48.778;9.126;2022-08-18T10:50:21;28.10;80.10
21944;DHT22;11136;48.778;9.126;2022-08-18T10:53:26;27.90;79.80
21944;DHT22;11136;48.778;9.126;2022-08-18T10:59:16;27.80;80.00
21944;DHT22;11136;48.778;9.126;2022-08-18T11:04:46;27.90;79.10
21944;DHT22;11136;48.778;9.126;2022-08-18T11:07:20;27.90;79.50
21944;DHT22;11136;48.778;9.126;2022-08-18T11:09:55;27.90;79.00
21944;DHT22;11136;48.778;9.126;2022-08-18T11:15:16;27.90;78.40
21944;DHT22;11136;48.778;9.126;2022-08-18T11:17:52;27.90;78.20
21944;DHT22;11136;48.778;9.126;2022-08-18T11:20:22;27.90;78.10
21944;DHT22;11136;48.778;9.126;2022-08-18T11:22:55;27.80;77.90
21944;DHT22;11136;48.778;9.126;2022-08-18T11:27:50;27.80;78.40
21944;DHT22;11136;48.778;9.126;2022-08-18T11:30:16;27.80;78.90
21944;DHT22;11136;48.778;9.126;2022-08-18T11:32:42;27.90;78.30
21944;DHT22;11136;48.778;9.126;2022-08-18T11:35:20;27.90;77.90
21944;DHT22;11136;48.778;9.126;2022-08-18T11:38:10;28.00;77.40
21944;DHT22;11136;48.778;9.126;2022-08-18T11:40:40;28.00;77.50
21944;DHT22;11136;48.778;9.126;2022-08-18T11:45:48;27.90;77.00
21944;DHT22;11136;48.778;9.126;2022-08-18T11:48:56;28.00;77.10
21944;DHT22;11136;48.778;9.126;2022-08-18T11:53:58;27.90;77.10
21944;DHT22;11136;48.778;9.126;2022-08-18T11:56:35;27.80;77.10
21944;DHT22;11136;48.778;9.126;2022-08-18T11:59:03;27.80;77.10
21944;DHT22;11136;48.778;9.126;2022-08-18T12:06:27;27.70;76.30
21944;DHT22;11136;48.778;9.126;2022-08-18T12:09:05;27.90;76.30
21944;DHT22;11136;48.778;9.126;2022-08-18T12:11:57;27.70;76.20
21944;DHT22;11136;48.778;9.126;2022-08-18T12:14:28;27.80;76.40
21944;DHT22;11136;48.778;9.126;2022-08-18T12:16:55;27.80;75.80
21944;DHT22;11136;48.778;9.126;2022-08-18T12:19:22;27.90;75.70
21944;DHT22;11136;48.778;9.126;2022-08-18T12:21:53;28.00;75.70
21944;DHT22;11136;48.778;9.126;2022-08-18T12:24:30;28.00;75.20
21944;DHT22;11136;48.778;9.126;2022-08-18T12:26:56;28.10;75.60
21944;DHT22;11136;48.778;9.126;2022-08-18T12:29:23;28.10;75.40
21944;DHT22;11136;48.778;9.126;2022-08-18T12:31:51;28.30;75.00
21944;DHT22;11136;48.778;9.126;2022-08-18T12:34:18;28.40;74.50
21944;DHT22;11136;48.778;9.126;2022-08-18T12:36:44;28.70;73.90
21944;DHT22;11136;48.778;9.126;2022-08-18T12:39:10;28.90;73.00
21944;DHT22;11136;48.778;9.126;2022-08-18T12:41:36;29.00;72.00
21944;DHT22;11136;48.778;9.126;2022-08-18T12:44:02;29.20;71.60
21944;DHT22;11136;48.778;9.126;2022-08-18T12:46:28;29.40;71.20
21944;DHT22;11136;48.778;9.126;2022-08-18T12:48:54;29.50;70.40
21944;DHT22;11136;48.778;9.126;2022-08-18T12:51:20;29.60;70.00
21944;DHT22;11136;48.778;9.126;2022-08-18T12:53:45;29.70;70.00
21944;DHT22;11136;48.778;9.126;2022-08-18T12:58:44;29.90;68.10
21944;DHT22;11136;48.778;9.126;2022-08-18T13:01:09;30.10;67.60
21944;DHT22;11136;48.778;9.126;2022-08-18T13:03:35;30.20;67.50
21944;DHT22;11136;48.778;9.126;2022-08-18T13:06:01;30.40;66.30
21944;DHT22;11136;48.778;9.126;2022-08-18T13:08:27;30.40;65.20
21944;DHT22;11136;48.778;9.126;2022-08-18T13:10:53;30.30;64.60
21944;DHT22;11136;48.778;9.126;2022-08-18T13:13:19;30.30;64.70
21944;DHT22;11136;48.778;9.126;2022-08-18T13:15:45;30.30;65.00
21944;DHT22;11136;48.778;9.126;2022-08-18T13:18:12;30.60;65.00
21944;DHT22;11136;48.778;9.126;2022-08-18T13:20:40;30.80;64.20
21944;DHT22;11136;48.778;9.126;2022-08-18T13:23:05;30.90;63.70
21944;DHT22;11136;48.778;9.126;2022-08-18T13:25:31;31.00;63.20
21944;DHT22;11136;48.778;9.126;2022-08-18T13:27:57;30.90;62.50
21944;DHT22;11136;48.778;9.126;2022-08-18T13:30:23;31.10;63.00
21944;DHT22;11136;48.778;9.126;2022-08-18T13:32:49;31.60;63.40
21944;DHT22;11136;48.778;9.126;2022-08-18T13:35:15;32.00;61.80
21944;DHT22;11136;48.778;9.126;2022-08-18T13:37:41;32.00;60.70
21944;DHT22;11136;48.778;9.126;2022-08-18T13:40:08;32.20;60.70
21944;DHT22;11136;48.778;9.126;2022-08-18T13:42:43;32.70;60.40
21944;DHT22;11136;48.778;9.126;2022-08-18T13:45:13;33.40;59.50
21944;DHT22;11136;48.778;9.126;2022-08-18T13:47:39;34.20;59.00
21944;DHT22;11136;48.778;9.126;2022-08-18T13:50:05;35.10;57.70
21944;DHT22;11136;48.778;9.126;2022-08-18T13:52:31;35.90;56.30
21944;DHT22;11136;48.778;9.126;2022-08-18T13:54:57;36.40;54.50
21944;DHT22;11136;48.778;9.126;2022-08-18T13:57:23;36.30;53.80
21944;DHT22;11136;48.778;9.126;2022-08-18T13:59:48;36.40;53.60
21944;DHT22;11136;48.778;9.126;2022-08-18T14:02:14;36.70;53.30
21944;DHT22;11136;48.778;9.126;2022-08-18T14:04:39;37.10;52.70
21944;DHT22;11136;48.778;9.126;2022-08-18T14:07:07;37.50;51.80
21944;DHT22;11136;48.778;9.126;2022-08-18T14:09:34;37.70;50.80
21944;DHT22;11136;48.778;9.126;2022-08-18T14:12:21;37.50;50.40
21944;DHT22;11136;48.778;9.126;2022-08-18T14:14:46;37.20;50.00
21944;DHT22;11136;48.778;9.126;2022-08-18T14:17:12;36.90;50.50
21944;DHT22;11136;48.778;9.126;2022-08-18T14:19:37;36.70;50.40
21944;DHT22;11136;48.778;9.126;2022-08-18T14:22:22;36.30;50.40
21944;DHT22;11136;48.778;9.126;2022-08-18T14:25:06;35.90;50.80
21944;DHT22;11136;48.778;9.126;2022-08-18T14:27:50;35.30;51.20
21944;DHT22;11136;48.778;9.126;2022-08-18T14:30:16;34.80;51.70
21944;DHT22;11136;48.778;9.126;2022-08-18T14:32:43;34.50;52.30
21944;DHT22;11136;48.778;9.126;2022-08-18T14:35:12;34.20;52.60
21944;DHT22;11136;48.778;9.126;2022-08-18T14:37:38;33.90;53.20
21944;DHT22;11136;48.778;9.126;2022-08-18T14:40:05;33.60;53.90
21944;DHT22;11136;48.778;9.126;2022-08-18T14:42:32;33.30;53.90
21944;DHT22;11136;48.778;9.126;2022-08-18T14:44:58;33.10;54.30
21944;DHT22;11136;48.778;9.126;2022-08-18T14:47:24;32.90;54.90
21944;DHT22;11136;48.778;9.126;2022-08-18T14:49:52;32.70;55.10
21944;DHT22;11136;48.778;9.126;2022-08-18T14:52:18;32.70;55.50
21944;DHT22;11136;48.778;9.126;2022-08-18T14:54:43;32.70;55.80
21944;DHT22;11136;48.778;9.126;2022-08-18T14:57:09;33.00;56.00
21944;DHT22;11136;48.778;9.126;2022-08-18T14:59:37;33.40;56.10
21944;DHT22;11136;48.778;9.126;2022-08-18T15:02:04;33.70;55.00
21944;DHT22;11136;48.778;9.126;2022-08-18T15:04:30;33.70;54.40
21944;DHT22;11136;48.778;9.126;2022-08-18T15:06:55;33.50;54.10
21944;DHT22;11136;48.778;9.126;2022-08-18T15:09:21;33.20;53.80
21944;DHT22;11136;48.778;9.126;2022-08-18T15:11:47;32.90;54.20
21944;DHT22;11136;48.778;9.126;2022-08-18T15:14:14;32.70;54.80
21944;DHT22;11136;48.778;9.126;2022-08-18T15:16:42;32.50;55.30
21944;DHT22;11136;48.778;9.126;2022-08-18T15:19:07;32.30;55.60
21944;DHT22;11136;48.778;9.126;2022-08-18T15:21:33;32.10;56.00
21944;DHT22;11136;48.778;9.126;2022-08-18T15:24:17;31.90;56.10
21944;DHT22;11136;48.778;9.126;2022-08-18T15:27:01;31.80;56.40
21944;DHT22;11136;48.778;9.126;2022-08-18T15:29:30;31.70;56.50
21944;DHT22;11136;48.778;9.126;2022-08-18T15:31:57;31.60;56.70
21944;DHT22;11136;48.778;9.126;2022-08-18T15:34:23;31.60;57.00
21944;DHT22;11136;48.778;9.126;2022-08-18T15:36:49;31.60;57.10
21944;DHT22;11136;48.778;9.126;2022-08-18T15:39:15;31.70;57.40
21944;DHT22;11136;48.778;9.126;2022-08-18T15:41:43;31.50;57.70
21944;DHT22;11136;48.778;9.126;2022-08-18T15:44:15;31.40;57.50
21944;DHT22;11136;48.778;9.126;2022-08-18T15:46:41;31.40;57.50
21944;DHT22;11136;48.778;9.126;2022-08-18T15:49:06;31.30;57.70
21944;DHT22;11136;48.778;9.126;2022-08-18T15:51:34;31.20;57.70
21944;DHT22;11136;48.778;9.126;2022-08-18T15:54:00;31.10;57.90
21944;DHT22;11136;48.778;9.126;2022-08-18T15:56:25;31.00;58.00
21944;DHT22;11136;48.778;9.126;2022-08-18T15:58:52;31.00;58.10
21944;DHT22;11136;48.778;9.126;2022-08-18T16:01:20;31.00;58.10
21944;DHT22;11136;48.778;9.126;2022-08-18T16:03:46;30.80;58.20
21944;DHT22;11136;48.778;9.126;2022-08-18T16:06:14;30.70;58.10
21944;DHT22;11136;48.778;9.126;2022-08-18T16:08:41;30.70;58.30
21944;DHT22;11136;48.778;9.126;2022-08-18T16:11:09;30.70;58.90
21944;DHT22;11136;48.778;9.126;2022-08-18T16:13:35;30.60;58.40
21944;DHT22;11136;48.778;9.126;2022-08-18T16:16:11;30.60;58.50
21944;DHT22;11136;48.778;9.126;2022-08-18T16:18:38;30.50;58.70
21944;DHT22;11136;48.778;9.126;2022-08-18T16:21:09;30.40;58.50
21944;DHT22;11136;48.778;9.126;2022-08-18T16:23:39;30.40;58.60
21944;DHT22;11136;48.778;9.126;2022-08-18T16:26:05;30.40;58.60
21944;DHT22;11136;48.778;9.126;2022-08-18T16:28:32;30.30;58.70
21944;DHT22;11136;48.778;9.126;2022-08-18T16:30:58;30.20;58.90
21944;DHT22;11136;48.778;9.126;2022-08-18T16:33:24;30.00;58.80
21944;DHT22;11136;48.778;9.126;2022-08-18T16:35:50;30.00;59.10
21944;DHT22;11136;48.778;9.126;2022-08-18T16:38:17;29.90;59.10
21944;DHT22;11136;48.778;9.126;2022-08-18T16:40:43;29.90;59.00
21944;DHT22;11136;48.778;9.126;2022-08-18T16:43:10;29.70;59.30
21944;DHT22;11136;48.778;9.126;2022-08-18T16:45:38;29.60;59.80
21944;DHT22;11136;48.778;9.126;2022-08-18T16:48:05;29.50;60.50
21944;DHT22;11136;48.778;9.126;2022-08-18T16:50:33;29.40;61.10
21944;DHT22;11136;48.778;9.126;2022-08-18T16:52:59;29.30;61.90
21944;DHT22;11136;48.778;9.126;2022-08-18T16:55:25;29.20;62.50
21944;DHT22;11136;48.778;9.126;2022-08-18T16:57:51;29.10;63.20
21944;DHT22;11136;48.778;9.126;2022-08-18T17:00:36;29.00;63.60
21944;DHT22;11136;48.778;9.126;2022-08-18T17:03:20;29.00;64.10
21944;DHT22;11136;48.778;9.126;2022-08-18T17:06:09;28.90;64.30
21944;DHT22;11136;48.778;9.126;2022-08-18T17:08:36;28.80;65.10
21944;DHT22;11136;48.778;9.126;2022-08-18T17:11:07;28.70;65.40
21944;DHT22;11136;48.778;9.126;2022-08-18T17:13:34;28.70;65.80
21944;DHT22;11136;48.778;9.126;2022-08-18T17:16:01;28.60;65.90
21944;DHT22;11136;48.778;9.126;2022-08-18T17:18:27;28.50;66.10
21944;DHT22;11136;48.778;9.126;2022-08-18T17:20:53;28.50;66.30
21944;DHT22;11136;48.778;9.126;2022-08-18T17:23:19;28.40;66.50
21944;DHT22;11136;48.778;9.126;2022-08-18T17:25:46;28.30;66.60
21944;DHT22;11136;48.778;9.126;2022-08-18T17:28:12;28.30;66.80
21944;DHT22;11136;48.778;9.126;2022-08-18T17:30:44;28.30;67.10
21944;DHT22;11136;48.778;9.126;2022-08-18T17:33:26;28.20;67.40
21944;DHT22;11136;48.778;9.126;2022-08-18T17:35:54;28.10;67.50
21944;DHT22;11136;48.778;9.126;2022-08-18T17:38:31;28.10;67.70
21944;DHT22;11136;48.778;9.126;2022-08-18T17:41:01;28.00;67.90
21944;DHT22;11136;48.778;9.126;2022-08-18T17:43:32;28.00;68.20
21944;DHT22;11136;48.778;9.126;2022-08-18T17:46:08;27.90;68.50
21944;DHT22;11136;48.778;9.126;2022-08-18T17:48:37;27.90;68.50
21944;DHT22;11136;48.778;9.126;2022-08-18T17:51:24;27.80;68.50
21944;DHT22;11136;48.778;9.126;2022-08-18T17:54:30;27.70;68.90
21944;DHT22;11136;48.778;9.126;2022-08-18T17:57:06;27.70;69.10
21944;DHT22;11136;48.778;9.126;2022-08-18T18:00:05;27.60;69.20
21944;DHT22;11136;48.778;9.126;2022-08-18T18:02:35;27.50;69.70
21944;DHT22;11136;48.778;9.126;2022-08-18T18:05:04;27.50;70.00
21944;DHT22;11136;48.778;9.126;2022-08-18T18:07:36;27.40;70.30
21944;DHT22;11136;48.778;9.126;2022-08-18T18:10:11;27.30;70.70
21944;DHT22;11136;48.778;9.126;2022-08-18T18:12:37;27.30;71.00
21944;DHT22;11136;48.778;9.126;2022-08-18T18:15:09;27.20;71.10
21944;DHT22;11136;48.778;9.126;2022-08-18T18:17:38;27.20;71.50
21944;DHT22;11136;48.778;9.126;2022-08-18T18:20:34;27.10;71.70